Time;durP1;ratioP1;P1;durP2;ratioP2;P2;SDS_P1;SDS_P2;PMS_P1;PMS_P2;Temp;Humidity;BMP_temperature;BMP_pressure;BME280_temperature;BME280_humidity;BME280_pressure;Samples;Min_cycle;Max_cycle;Signal;HPM_P1;HPM_P2
2021/07/08 04:01:30;;;;;;;9.17;3.80;;;19.10;99.90;;;;;;5515861;23;20486;-65
2021/07/08 04:03:57;;;;;;;3.93;3.57;;;19.00;99.90;;;;;;4997007;28;20461;-65
2021/07/08 04:06:24;;;;;;;4.80;4.30;;;19.00;99.90;;;;;;4996443;28;20450;-65
2021/07/08 04:08:50;;;;;;;5.60;4.40;;;19.00;99.90;;;;;;4996149;28;20453;-65
2021/07/08 04:11:17;;;;;;;4.43;4.03;;;19.00;99.90;;;;;;4995005;28;20473;-65
2021/07/08 04:13:44;;;;;;;4.53;4.17;;;18.90;99.90;;;;;;4996630;28;20454;-65
2021/07/08 04:16:10;;;;;;;5.60;5.00;;;18.90;99.90;;;;;;4995947;28;20454;-65
2021/07/08 04:18:38;;;;;;;12.33;4.67;;;18.90;99.90;;;;;;4996868;28;20484;-65
2021/07/08 04:21:05;;;;;;;5.50;5.00;;;18.80;99.90;;;;;;4995574;28;20872;-65
2021/07/08 04:23:32;;;;;;;5.93;5.20;;;18.80;99.90;;;;;;4996070;28;20468;-65
2021/07/08 04:25:59;;;;;;;5.63;4.97;;;18.80;99.90;;;;;;4996243;28;20453;-65
2021/07/08 04:28:25;;;;;;;6.13;5.63;;;18.80;99.90;;;;;;4995839;28;20458;-66
2021/07/08 04:30:52;;;;;;;5.97;5.37;;;18.70;99.90;;;;;;4995473;28;20500;-67
2021/07/08 04:33:19;;;;;;;5.53;5.13;;;18.70;99.90;;;;;;4995885;28;20454;-65
2021/07/08 04:35:47;;;;;;;6.00;5.50;;;18.70;99.90;;;;;;4995827;28;20464;-65
2021/07/08 04:38:15;;;;;;;5.97;5.37;;;18.60;99.90;;;;;;4995483;28;20949;-65
2021/07/08 04:40:42;;;;;;;5.47;5.07;;;18.60;99.90;;;;;;4995584;28;20548;-65
2021/07/08 04:43:11;;;;;;;6.70;5.70;;;18.70;99.90;;;;;;4996049;28;20462;-65
2021/07/08 04:45:38;;;;;;;6.60;6.00;;;18.60;99.90;;;;;;4995719;28;20453;-65
2021/07/08 04:48:06;;;;;;;5.90;5.43;;;18.50;99.90;;;;;;4996418;28;20489;-65
2021/07/08 04:50:34;;;;;;;6.53;5.93;;;18.50;99.90;;;;;;4996191;28;20481;-66
2021/07/08 04:53:02;;;;;;;9.20;5.60;;;18.50;99.90;;;;;;4995521;28;20450;-65
2021/07/08 04:55:29;;;;;;;5.60;5.20;;;18.60;99.90;;;;;;4995321;28;20453;-65
2021/07/08 04:57:56;;;;;;;6.90;5.63;;;18.50;99.90;;;;;;4995445;28;20454;-65
2021/07/08 05:00:23;;;;;;;6.30;5.70;;;18.60;99.90;;;;;;4995244;28;20462;-66
2021/07/08 05:02:51;;;;;;;10.60;6.20;;;18.60;99.90;;;;;;4995377;28;20472;-65
2021/07/08 05:05:18;;;;;;;10.07;7.13;;;18.60;99.90;;;;;;4995147;28;20458;-65
2021/07/08 05:07:46;;;;;;;6.43;5.93;;;18.70;99.90;;;;;;4995029;28;20480;-65
2021/07/08 05:10:16;;;;;;;10.90;6.07;;;18.70;99.90;;;;;;4995075;28;20543;-66
2021/07/08 05:12:44;;;;;;;6.07;5.57;;;18.80;99.90;;;;;;4995433;28;20438;-65
2021/07/08 05:15:13;;;;;;;10.37;4.80;;;18.90;99.90;;;;;;4995063;28;20505;-65
2021/07/08 05:17:40;;;;;;;5.90;5.50;;;18.90;99.90;;;;;;4994897;28;20884;-65
2021/07/08 05:20:08;;;;;;;8.40;5.70;;;18.90;99.90;;;;;;4995018;28;20820;-65
2021/07/08 05:22:35;;;;;;;5.70;5.20;;;19.00;99.90;;;;;;4994629;28;20473;-65
2021/07/08 05:25:03;;;;;;;6.47;5.93;;;19.00;99.90;;;;;;4995226;28;20456;-65
2021/07/08 05:27:32;;;;;;;6.30;5.53;;;19.10;99.90;;;;;;4994809;28;20464;-65
2021/07/08 05:30:00;;;;;;;5.80;5.40;;;19.10;99.90;;;;;;4994922;28;20457;-65
2021/07/08 05:32:26;;;;;;;6.50;5.93;;;19.10;99.90;;;;;;4994552;28;20478;-65
2021/07/08 05:34:53;;;;;;;8.07;6.23;;;19.10;99.90;;;;;;4995073;28;20458;-65
2021/07/08 05:37:20;;;;;;;6.47;5.87;;;19.20;99.90;;;;;;4994808;28;20833;-65
2021/07/08 05:39:46;;;;;;;7.67;6.07;;;19.20;99.90;;;;;;4995094;28;20464;-65
2021/07/08 05:42:13;;;;;;;6.30;5.70;;;19.20;99.90;;;;;;4994998;28;20482;-67
2021/07/08 05:44:41;;;;;;;6.20;5.60;;;19.30;99.90;;;;;;4995252;28;20438;-65
2021/07/08 05:47:08;;;;;;;8.53;5.40;;;19.40;99.90;;;;;;4994712;28;20454;-65
2021/07/08 05:49:35;;;;;;;6.70;5.53;;;19.50;99.90;;;;;;4995366;28;20925;-65
2021/07/08 05:52:01;;;;;;;5.80;5.20;;;19.50;99.90;;;;;;4994922;28;20477;-66
2021/07/08 05:54:28;;;;;;;5.57;4.93;;;19.50;99.90;;;;;;4994951;28;20516;-65
2021/07/08 05:56:55;;;;;;;5.53;5.10;;;19.50;99.90;;;;;;4994914;28;20458;-65
2021/07/08 05:59:24;;;;;;;7.77;5.27;;;19.50;99.90;;;;;;4994751;28;20450;-65
2021/07/08 06:01:52;;;;;;;5.93;5.43;;;19.50;99.90;;;;;;4994688;28;20580;-65
2021/07/08 06:04:19;;;;;;;5.93;5.50;;;19.40;99.90;;;;;;4995688;28;21002;-65
2021/07/08 06:06:46;;;;;;;7.07;6.37;;;19.40;99.90;;;;;;4995450;28;20456;-65
2021/07/08 06:09:12;;;;;;;7.03;5.83;;;19.40;99.90;;;;;;4996191;28;20453;-70
2021/07/08 06:11:39;;;;;;;7.93;5.97;;;19.40;99.90;;;;;;4995976;28;20481;-69
2021/07/08 06:14:06;;;;;;;6.57;5.80;;;19.40;99.90;;;;;;4996341;28;20820;-68
2021/07/08 06:16:32;;;;;;;8.50;7.00;;;19.40;99.90;;;;;;4999258;28;20461;-70
2021/07/08 06:19:00;;;;;;;5.90;5.40;;;19.40;99.90;;;;;;4997256;28;20815;-66
2021/07/08 06:21:28;;;;;;;6.23;5.63;;;19.50;99.90;;;;;;4995190;28;20473;-66
2021/07/08 06:23:55;;;;;;;7.93;7.17;;;19.50;99.90;;;;;;4995856;28;20512;-66
2021/07/08 06:26:21;;;;;;;9.27;7.90;;;19.50;99.90;;;;;;4996780;28;20462;-66
2021/07/08 06:28:48;;;;;;;7.03;6.33;;;19.60;99.90;;;;;;4994621;28;20453;-66
2021/07/08 06:31:15;;;;;;;13.17;6.70;;;19.60;99.90;;;;;;4995641;28;20482;-66
2021/07/08 06:33:43;;;;;;;9.40;6.50;;;19.70;99.90;;;;;;4996920;28;20532;-66
2021/07/08 06:36:12;;;;;;;8.50;6.50;;;19.70;99.90;;;;;;4998444;28;20453;-66
2021/07/08 06:38:39;;;;;;;7.50;7.00;;;19.70;99.90;;;;;;4998203;28;20466;-66
2021/07/08 06:41:05;;;;;;;6.93;6.33;;;19.70;99.90;;;;;;4997925;28;20478;-66
2021/07/08 06:43:32;;;;;;;8.60;7.13;;;19.60;99.90;;;;;;4998115;28;20472;-66
2021/07/08 06:45:59;;;;;;;7.63;7.03;;;19.60;99.90;;;;;;4998165;28;20446;-66
2021/07/08 06:48:26;;;;;;;8.57;7.13;;;19.50;99.90;;;;;;4998070;28;20458;-66
2021/07/08 06:50:53;;;;;;;8.60;7.80;;;19.50;99.90;;;;;;4997747;28;20509;-66
2021/07/08 06:53:21;;;;;;;7.77;6.93;;;19.60;99.90;;;;;;4997834;28;20449;-66
2021/07/08 06:55:48;;;;;;;9.00;7.10;;;19.60;99.90;;;;;;4997627;28;20924;-66
2021/07/08 06:58:15;;;;;;;6.70;6.07;;;19.70;99.90;;;;;;5005142;28;20457;-66
2021/07/08 07:00:42;;;;;;;8.90;8.00;;;19.80;99.90;;;;;;5008397;28;20481;-66
2021/07/08 07:03:09;;;;;;;9.17;8.23;;;19.90;99.90;;;;;;5001528;28;20472;-66
2021/07/08 07:05:36;;;;;;;15.60;9.00;;;19.80;99.90;;;;;;4998668;28;20771;-67
2021/07/08 07:08:03;;;;;;;9.67;8.80;;;19.80;99.90;;;;;;4998424;28;20450;-66
2021/07/08 07:10:31;;;;;;;9.77;8.80;;;19.80;99.90;;;;;;4997739;28;20524;-66
2021/07/08 07:13:00;;;;;;;9.63;8.93;;;19.70;99.90;;;;;;4997867;28;20457;-66
2021/07/08 07:15:28;;;;;;;9.90;8.90;;;19.70;99.90;;;;;;4997528;28;20464;-66
2021/07/08 07:17:57;;;;;;;9.20;8.30;;;19.70;99.90;;;;;;4997352;28;20461;-66
2021/07/08 07:20:23;;;;;;;8.53;7.83;;;19.80;99.90;;;;;;4997446;28;20468;-66
2021/07/08 07:22:51;;;;;;;8.20;7.60;;;19.90;99.90;;;;;;4996998;28;20477;-66
2021/07/08 07:25:19;;;;;;;9.03;8.17;;;19.90;99.90;;;;;;4997093;28;20454;-66
2021/07/08 07:27:49;;;;;;;9.60;8.10;;;20.00;99.90;;;;;;4997056;28;20460;-66
2021/07/08 07:30:16;;;;;;;7.40;6.90;;;20.00;99.90;;;;;;4996939;28;20448;-67
2021/07/08 07:32:43;;;;;;;8.50;7.50;;;20.00;99.90;;;;;;4996838;28;20468;-66
2021/07/08 07:35:10;;;;;;;7.80;7.20;;;20.20;99.90;;;;;;4996672;28;20949;-66
2021/07/08 07:37:37;;;;;;;10.27;7.27;;;20.30;99.90;;;;;;4996904;28;20454;-66
2021/07/08 07:40:05;;;;;;;8.47;7.67;;;20.50;99.90;;;;;;4996858;28;20475;-66
2021/07/08 07:42:34;;;;;;;12.47;8.23;;;20.50;99.90;;;;;;4996396;28;20902;-66
2021/07/08 07:45:02;;;;;;;9.20;8.30;;;20.40;99.90;;;;;;4996777;28;20457;-66
2021/07/08 07:47:29;;;;;;;13.60;8.30;;;20.60;99.90;;;;;;4996673;28;20449;-66
2021/07/08 07:49:56;;;;;;;9.80;7.70;;;20.50;99.90;;;;;;4996844;28;20462;-66
2021/07/08 07:52:23;;;;;;;9.93;7.40;;;20.60;99.90;;;;;;4996189;28;20502;-66
2021/07/08 07:54:49;;;;;;;9.30;8.60;;;20.60;99.90;;;;;;4996539;28;20449;-66
2021/07/08 07:57:16;;;;;;;13.53;9.23;;;20.70;99.90;;;;;;4996146;28;20975;-66
2021/07/08 07:59:43;;;;;;;9.50;8.60;;;20.80;99.90;;;;;;4996458;28;20454;-66
2021/07/08 08:02:12;;;;;;;8.20;7.60;;;20.90;99.90;;;;;;4995938;28;20477;-66
2021/07/08 08:04:44;;;;;;;8.73;7.83;;;21.10;99.90;;;;;;4996394;28;20527;-66
2021/07/08 08:09:56;;;;;;;8.50;7.80;;;21.30;99.90;;;;;;4996654;28;20562;-66
2021/07/08 08:12:24;;;;;;;11.43;7.53;;;21.40;99.90;;;;;;4996312;28;20933;-66
2021/07/08 08:14:51;;;;;;;7.90;7.10;;;21.60;99.90;;;;;;4996147;28;20457;-66
2021/07/08 08:17:19;;;;;;;9.93;7.87;;;21.80;99.90;;;;;;4996105;28;20818;-66
2021/07/08 08:19:46;;;;;;;8.30;7.50;;;21.80;99.90;;;;;;4996060;28;20461;-66
2021/07/08 08:22:13;;;;;;;8.40;7.80;;;21.80;99.90;;;;;;4995831;28;20532;-66
2021/07/08 08:24:40;;;;;;;7.53;6.83;;;21.70;99.90;;;;;;4995954;28;20822;-66
2021/07/08 08:27:07;;;;;;;7.73;7.07;;;21.70;99.90;;;;;;4995975;28;20516;-66
2021/07/08 08:29:34;;;;;;;8.40;7.70;;;21.70;99.90;;;;;;4995768;28;20458;-66
2021/07/08 08:32:01;;;;;;;8.07;7.37;;;21.60;99.90;;;;;;4995567;28;20985;-66
2021/07/08 08:34:29;;;;;;;7.57;6.93;;;21.70;99.90;;;;;;4995839;28;20457;-66
2021/07/08 08:36:55;;;;;;;8.23;7.53;;;21.70;99.90;;;;;;4995568;28;20956;-66
2021/07/08 08:39:22;;;;;;;8.00;7.43;;;22.10;99.90;;;;;;4995826;28;20493;-66
2021/07/08 08:41:49;;;;;;;7.60;6.67;;;22.30;99.90;;;;;;4995572;28;20474;-66
2021/07/08 08:44:15;;;;;;;8.23;7.43;;;22.50;99.90;;;;;;4995574;28;20504;-66
2021/07/08 08:46:42;;;;;;;7.87;7.07;;;22.60;99.90;;;;;;4995733;28;20461;-66
2021/07/08 08:49:09;;;;;;;8.80;7.43;;;22.90;99.90;;;;;;4996262;28;20481;-66
2021/07/08 08:51:37;;;;;;;7.30;6.67;;;23.00;99.90;;;;;;4995451;28;20500;-66
2021/07/08 08:54:04;;;;;;;10.43;6.80;;;23.10;99.90;;;;;;4995393;28;20485;-66
2021/07/08 08:56:31;;;;;;;8.20;7.60;;;23.30;99.90;;;;;;4995004;28;20822;-66
2021/07/08 08:58:58;;;;;;;8.07;7.27;;;23.20;99.90;;;;;;4995274;28;20453;-66
2021/07/08 09:01:24;;;;;;;7.90;7.20;;;23.30;99.90;;;;;;4995550;28;20488;-66
2021/07/08 09:03:51;;;;;;;7.03;6.43;;;23.40;99.90;;;;;;4996384;28;20481;-66
2021/07/08 09:06:18;;;;;;;7.63;7.03;;;23.40;99.90;;;;;;4996392;28;20496;-66
2021/07/08 09:08:49;;;;;;;8.07;7.37;;;23.60;99.90;;;;;;4995529;28;20454;-66
2021/07/08 09:11:18;;;;;;;7.80;7.07;;;23.50;99.90;;;;;;4996002;28;20497;-66
2021/07/08 09:13:52;;;;;;;8.27;7.53;;;23.50;99.90;;;;;;4995233;28;20460;-66
2021/07/08 09:16:21;;;;;;;7.30;6.60;;;23.60;99.90;;;;;;4995071;28;20445;-66
2021/07/08 09:18:57;;;;;;;7.10;6.60;;;23.60;99.90;;;;;;4994907;28;20453;-66
2021/07/08 09:21:25;;;;;;;6.93;6.27;;;23.60;99.90;;;;;;4994831;28;20473;-66
2021/07/08 09:24:12;;;;;;;6.57;6.07;;;23.50;99.90;;;;;;4994628;28;20485;-66
2021/07/08 09:26:41;;;;;;;6.63;6.03;;;23.40;99.90;;;;;;4994852;28;20497;-66
2021/07/08 09:29:09;;;;;;;6.60;6.07;;;23.50;99.90;;;;;;4994880;28;20454;-66
2021/07/08 09:31:36;;;;;;;7.23;6.73;;;23.50;99.90;;;;;;4995557;28;20477;-66
2021/07/08 09:34:14;;;;;;;7.40;6.80;;;23.60;99.90;;;;;;4995648;28;20455;-66
2021/07/08 09:36:42;;;;;;;6.23;5.83;;;23.50;99.90;;;;;;4995343;28;20461;-66
2021/07/08 09:39:11;;;;;;;6.30;5.90;;;23.40;99.90;;;;;;4995657;28;20956;-66
2021/07/08 09:41:47;;;;;;;6.63;6.03;;;22.80;99.90;;;;;;4995493;28;20504;-66
2021/07/08 09:44:22;;;;;;;7.33;6.80;;;22.90;99.90;;;;;;4994771;28;20466;-66
2021/07/08 09:46:50;;;;;;;6.77;6.17;;;22.60;99.90;;;;;;4995248;28;20460;-66
2021/07/08 09:49:16;;;;;;;6.30;5.93;;;22.70;99.90;;;;;;4994561;28;20458;-66
2021/07/08 09:51:44;;;;;;;6.93;6.30;;;22.70;99.90;;;;;;4994892;28;20961;-66
2021/07/08 09:54:16;;;;;;;7.33;5.80;;;22.90;99.90;;;;;;4994306;28;20937;-66
2021/07/08 09:56:46;;;;;;;7.03;6.53;;;22.90;99.90;;;;;;4994545;28;20450;-66
2021/07/08 09:59:14;;;;;;;7.10;6.50;;;22.90;99.90;;;;;;4994865;28;20458;-66
2021/07/08 10:01:44;;;;;;;6.87;6.47;;;23.10;99.90;;;;;;4994214;28;20494;-66
2021/07/08 10:04:11;;;;;;;7.17;6.57;;;23.10;99.90;;;;;;4994323;28;21011;-66
2021/07/08 10:06:38;;;;;;;8.10;6.03;;;23.20;99.90;;;;;;4994426;28;20464;-66
2021/07/08 10:09:07;;;;;;;6.90;6.37;;;23.30;99.90;;;;;;4996846;28;20469;-66
2021/07/08 10:11:36;;;;;;;6.47;6.07;;;23.40;99.90;;;;;;4998104;28;20516;-66
2021/07/08 10:14:04;;;;;;;6.20;5.80;;;23.50;99.90;;;;;;4998008;28;20453;-66
2021/07/08 10:16:33;;;;;;;6.37;5.93;;;23.40;99.90;;;;;;4999144;28;20468;-66
2021/07/08 10:19:04;;;;;;;7.93;6.47;;;23.20;99.90;;;;;;4998888;28;20560;-66
2021/07/08 10:21:31;;;;;;;6.90;6.30;;;23.30;99.90;;;;;;4998604;28;20477;-66
2021/07/08 10:23:59;;;;;;;6.83;6.33;;;23.40;99.90;;;;;;4997906;28;21050;-66
2021/07/08 10:26:25;;;;;;;6.90;6.50;;;23.60;99.90;;;;;;4998758;28;20453;-66
2021/07/08 10:28:56;;;;;;;7.10;6.50;;;23.60;99.90;;;;;;4997947;28;20801;-66
2021/07/08 10:31:23;;;;;;;7.10;6.47;;;23.70;99.90;;;;;;4998336;28;20481;-66
2021/07/08 10:34:10;;;;;;;7.03;6.53;;;24.00;99.90;;;;;;4998124;28;20851;-66
2021/07/08 10:36:42;;;;;;;5.80;5.50;;;24.20;99.90;;;;;;4997839;28;20460;-66
2021/07/08 10:39:10;;;;;;;6.33;5.73;;;24.30;99.90;;;;;;4997953;28;20800;-66
2021/07/08 10:41:42;;;;;;;5.67;5.27;;;24.60;99.90;;;;;;4998414;28;20532;-66
2021/07/08 10:44:42;;;;;;;4.73;4.33;;;24.40;99.90;;;;;;4998252;28;20473;-66
2021/07/08 10:47:32;;;;;;;4.87;4.50;;;24.90;99.90;;;;;;4997457;28;20941;-66
2021/07/08 10:50:00;;;;;;;4.73;4.17;;;25.10;99.90;;;;;;4997802;28;20461;-66
2021/07/08 10:52:44;;;;;;;6.50;4.17;;;25.10;99.90;;;;;;4997554;28;20478;-66
2021/07/08 10:55:11;;;;;;;3.60;3.40;;;25.20;99.90;;;;;;4997706;28;20517;-66
2021/07/08 10:57:40;;;;;;;3.90;3.60;;;25.10;99.90;;;;;;4998390;28;20449;-66
2021/07/08 11:00:10;;;;;;;5.67;4.50;;;24.80;99.90;;;;;;4997950;28;20536;-66
2021/07/08 11:02:47;;;;;;;4.07;3.77;;;24.80;99.90;;;;;;4997200;28;20489;-66
2021/07/08 11:05:15;;;;;;;4.80;4.27;;;24.80;99.90;;;;;;4997621;28;20469;-66
2021/07/08 11:07:49;;;;;;;4.63;4.23;;;24.80;99.90;;;;;;4997476;28;20461;-66
2021/07/08 11:10:33;;;;;;;4.17;3.87;;;24.70;99.90;;;;;;4997552;28;20453;-67
2021/07/08 11:13:30;;;;;;;4.17;3.93;;;24.60;99.90;;;;;;4997470;28;20448;-66
2021/07/08 11:15:58;;;;;;;4.20;3.80;;;24.50;99.90;;;;;;4996233;28;20454;-66
2021/07/08 11:18:32;;;;;;;4.53;4.13;;;24.50;99.90;;;;;;4997202;28;20456;-66
2021/07/08 11:20:59;;;;;;;3.73;3.50;;;24.50;99.90;;;;;;4996611;28;21007;-66
2021/07/08 11:23:40;;;;;;;3.13;3.03;;;24.50;99.90;;;;;;4997154;28;20481;-66
2021/07/08 11:26:10;;;;;;;3.90;3.67;;;24.60;99.90;;;;;;4997255;28;20509;-66
2021/07/08 11:28:39;;;;;;;5.10;4.70;;;24.60;99.90;;;;;;4997227;28;20549;-66
2021/07/08 11:31:08;;;;;;;3.80;3.50;;;24.60;99.90;;;;;;4997016;28;20473;-67
2021/07/08 11:33:38;;;;;;;3.30;3.10;;;24.60;99.90;;;;;;4997340;28;20454;-66
2021/07/08 11:36:11;;;;;;;3.70;3.40;;;24.50;99.90;;;;;;4997067;28;20465;-66
2021/07/08 11:38:43;;;;;;;3.30;3.10;;;24.30;99.90;;;;;;4997110;28;20446;-66
2021/07/08 11:41:10;;;;;;;3.80;3.50;;;24.10;99.90;;;;;;4997448;28;20484;-66
2021/07/08 11:43:37;;;;;;;3.20;3.00;;;24.00;99.90;;;;;;4998638;28;20474;-66
2021/07/08 11:46:10;;;;;;;7.70;2.93;;;23.80;99.90;;;;;;4998014;28;20792;-67
2021/07/08 11:48:39;;;;;;;2.60;2.50;;;23.50;99.90;;;;;;4998166;28;20442;-67
2021/07/08 11:51:13;;;;;;;2.23;2.00;;;23.40;99.90;;;;;;5000058;28;20470;-66
2021/07/08 11:53:41;;;;;;;5.77;2.47;;;23.00;99.90;;;;;;4997668;28;20438;-66
2021/07/08 11:56:07;;;;;;;2.60;2.23;;;22.90;99.90;;;;;;4997002;28;20833;-66
2021/07/08 11:58:35;;;;;;;6.90;2.80;;;22.80;99.90;;;;;;4996826;28;20465;-66
2021/07/08 12:01:05;;;;;;;8.50;3.77;;;22.60;99.90;;;;;;4996106;28;20859;-66
2021/07/08 12:03:36;;;;;;;2.70;2.07;;;22.40;99.90;;;;;;4996675;28;20525;-66
2021/07/08 12:06:05;;;;;;;5.10;3.63;;;22.00;99.90;;;;;;4996755;28;20895;-66
2021/07/08 12:08:34;;;;;;;2.70;2.50;;;21.70;99.90;;;;;;4996846;28;20485;-66
2021/07/08 12:13:50;;;;;;;3.10;2.90;;;21.30;99.90;;;;;;4996208;28;20525;-66
2021/07/08 12:16:19;;;;;;;3.33;3.03;;;21.20;99.90;;;;;;4996254;28;20460;-66
2021/07/08 12:18:49;;;;;;;3.67;3.33;;;21.10;99.90;;;;;;4996292;28;20449;-66
2021/07/08 12:21:24;;;;;;;5.43;4.03;;;20.90;99.90;;;;;;4995934;28;20477;-66
2021/07/08 12:23:51;;;;;;;4.40;3.97;;;20.80;99.90;;;;;;4996036;28;20465;-66
2021/07/08 12:26:33;;;;;;;4.37;4.07;;;20.70;99.90;;;;;;4996084;28;20454;-66
2021/07/08 12:29:11;;;;;;;5.80;3.87;;;20.60;99.90;;;;;;4996614;28;20442;-66
2021/07/08 12:31:42;;;;;;;4.60;4.30;;;20.60;99.90;;;;;;4994662;28;20478;-66
2021/07/08 12:34:10;;;;;;;4.50;4.00;;;20.50;99.90;;;;;;4996193;28;20434;-66
2021/07/08 12:36:37;;;;;;;4.73;4.33;;;20.50;99.90;;;;;;4997031;28;20814;-66
2021/07/08 12:39:05;;;;;;;4.70;4.40;;;20.50;99.90;;;;;;4995856;28;20933;-66
2021/07/08 12:41:32;;;;;;;4.33;3.93;;;20.50;99.90;;;;;;4995344;28;20999;-66
2021/07/08 12:44:00;;;;;;;4.00;3.80;;;20.50;99.90;;;;;;4995916;28;20477;-66
2021/07/08 12:46:29;;;;;;;4.00;3.80;;;20.50;99.90;;;;;;4995954;28;20453;-66
2021/07/08 12:48:56;;;;;;;4.13;3.80;;;20.60;99.90;;;;;;4995727;28;20454;-66
2021/07/08 12:51:26;;;;;;;4.33;3.93;;;20.60;99.90;;;;;;4995534;28;20484;-66
2021/07/08 12:53:53;;;;;;;4.43;4.13;;;20.70;99.90;;;;;;4995479;28;20556;-66
2021/07/08 12:56:22;;;;;;;4.50;4.20;;;20.80;99.90;;;;;;4995907;28;20457;-66
2021/07/08 12:58:57;;;;;;;4.40;4.10;;;20.80;99.90;;;;;;4995487;28;20454;-66
2021/07/08 13:01:25;;;;;;;6.10;4.03;;;20.90;99.90;;;;;;4995389;28;20854;-67
2021/07/08 13:03:52;;;;;;;4.40;4.20;;;20.90;99.90;;;;;;4995085;28;21011;-66
2021/07/08 13:06:25;;;;;;;4.67;4.47;;;20.90;99.90;;;;;;4995379;28;20457;-66
2021/07/08 13:09:06;;;;;;;4.40;4.10;;;21.00;99.90;;;;;;4995529;28;20444;-66
2021/07/08 13:11:33;;;;;;;4.50;4.10;;;21.00;99.90;;;;;;4995410;28;20505;-66
2021/07/08 13:14:18;;;;;;;3.00;2.90;;;21.10;99.90;;;;;;4995579;28;20450;-66
2021/07/08 13:17:01;;;;;;;2.97;2.77;;;21.20;99.90;;;;;;4994617;28;20449;-66
2021/07/08 13:19:28;;;;;;;3.07;2.87;;;21.40;99.90;;;;;;4995740;28;20952;-66
2021/07/08 13:21:56;;;;;;;2.90;2.70;;;21.50;99.90;;;;;;4995318;28;20474;-66
2021/07/08 13:24:25;;;;;;;2.53;2.43;;;21.60;99.90;;;;;;4995223;28;20481;-66
2021/07/08 13:26:52;;;;;;;3.30;3.10;;;21.70;99.90;;;;;;4995016;28;20450;-66
2021/07/08 13:29:25;;;;;;;3.30;3.10;;;21.90;99.90;;;;;;4994930;28;20460;-66
2021/07/08 13:31:52;;;;;;;2.90;2.70;;;21.80;99.90;;;;;;4995216;28;20988;-66
2021/07/08 13:34:23;;;;;;;3.10;2.93;;;22.00;99.90;;;;;;4995183;28;20450;-66
2021/07/08 13:36:50;;;;;;;2.70;2.60;;;22.10;99.90;;;;;;4995364;28;20469;-66
2021/07/08 13:39:18;;;;;;;3.23;2.93;;;22.30;99.90;;;;;;4994631;28;20462;-66
2021/07/08 13:41:48;;;;;;;3.50;3.13;;;22.50;99.90;;;;;;4994692;28;20813;-66
2021/07/08 13:44:21;;;;;;;3.27;3.17;;;22.50;99.90;;;;;;4994574;28;20478;-66
2021/07/08 13:46:57;;;;;;;2.70;2.60;;;22.50;99.90;;;;;;4995055;28;20453;-66
2021/07/08 13:49:25;;;;;;;2.53;2.33;;;22.50;99.90;;;;;;4995014;28;20474;-65
2021/07/08 13:51:53;;;;;;;3.30;3.10;;;22.50;99.90;;;;;;4994738;28;20484;-66
2021/07/08 13:54:23;;;;;;;2.60;2.50;;;22.50;99.90;;;;;;4994718;28;20450;-66
2021/07/08 13:56:51;;;;;;;2.73;2.50;;;22.50;99.90;;;;;;4994839;28;20441;-66
2021/07/08 13:59:18;;;;;;;2.90;2.80;;;22.50;99.90;;;;;;4995112;28;20548;-66
2021/07/08 14:01:46;;;;;;;3.27;3.00;;;22.60;99.90;;;;;;4994562;28;20477;-66
2021/07/08 14:04:13;;;;;;;3.30;3.17;;;22.70;99.90;;;;;;4994606;28;20489;-66
2021/07/08 14:06:41;;;;;;;3.60;3.40;;;22.70;99.90;;;;;;4994898;28;20464;-66
2021/07/08 14:09:08;;;;;;;3.00;2.83;;;22.60;99.90;;;;;;4994892;28;20454;-66
2021/07/08 14:11:36;;;;;;;4.00;3.70;;;22.70;99.90;;;;;;4994631;28;20486;-66
2021/07/08 14:14:04;;;;;;;3.30;3.10;;;22.80;99.90;;;;;;4995405;28;20454;-66
2021/07/08 14:16:31;;;;;;;3.27;3.07;;;22.70;99.90;;;;;;4996486;28;20529;-65
2021/07/08 14:18:58;;;;;;;2.73;2.63;;;22.80;99.90;;;;;;4996348;28;20465;-66
2021/07/08 14:21:27;;;;;;;3.03;2.83;;;22.90;99.90;;;;;;4997048;28;20481;-65
2021/07/08 14:23:54;;;;;;;3.57;2.60;;;22.80;99.90;;;;;;4996177;28;20489;-65
2021/07/08 14:26:22;;;;;;;2.40;2.30;;;22.80;99.90;;;;;;4995611;28;20865;-65
2021/07/08 14:28:50;;;;;;;2.53;2.43;;;23.10;99.90;;;;;;4996092;28;20469;-65
2021/07/08 14:31:17;;;;;;;2.90;2.70;;;23.30;99.90;;;;;;4997088;28;20474;-66
2021/07/08 14:33:44;;;;;;;2.60;2.40;;;23.30;99.90;;;;;;4995855;28;20464;-66
2021/07/08 14:36:11;;;;;;;2.60;2.40;;;23.60;99.90;;;;;;4994941;28;20554;-65
2021/07/08 14:38:39;;;;;;;2.57;2.47;;;23.60;99.90;;;;;;4994456;28;20964;-65
2021/07/08 14:41:07;;;;;;;2.00;1.93;;;23.90;99.90;;;;;;4995064;28;20481;-65
2021/07/08 14:43:47;;;;;;;2.87;2.67;;;24.10;99.90;;;;;;4994824;28;20469;-66
2021/07/08 14:46:17;;;;;;;2.23;2.13;;;24.00;99.90;;;;;;4994977;28;20519;-65
2021/07/08 14:48:53;;;;;;;2.60;2.50;;;24.00;99.90;;;;;;4994984;28;20819;-66
2021/07/08 14:51:21;;;;;;;3.80;2.23;;;24.00;99.90;;;;;;4995256;28;20477;-66
2021/07/08 14:53:48;;;;;;;3.37;2.00;;;24.20;99.90;;;;;;4994695;28;20453;-66
2021/07/08 14:56:14;;;;;;;1.80;1.70;;;24.30;99.90;;;;;;4998903;28;20449;-66
2021/07/08 14:58:42;;;;;;;1.70;1.70;;;24.40;99.90;;;;;;4998041;28;20457;-66
2021/07/08 15:01:11;;;;;;;1.87;1.77;;;24.50;99.90;;;;;;4998190;28;20492;-66
2021/07/08 15:03:39;;;;;;;1.50;1.50;;;24.30;99.90;;;;;;4999153;28;20461;-65
2021/07/08 15:06:06;;;;;;;2.00;1.90;;;24.30;99.90;;;;;;4999477;28;20477;-65
2021/07/08 15:08:33;;;;;;;2.43;2.23;;;24.30;99.90;;;;;;4999406;28;20460;-65
2021/07/08 15:11:00;;;;;;;2.47;2.37;;;24.30;99.90;;;;;;4999503;28;20486;-66
2021/07/08 15:13:27;;;;;;;2.70;2.60;;;24.40;99.90;;;;;;4999181;28;20461;-66
2021/07/08 15:15:54;;;;;;;2.70;2.50;;;24.30;99.90;;;;;;4999390;28;20449;-67
2021/07/08 15:18:21;;;;;;;2.90;2.80;;;24.60;99.90;;;;;;4999244;28;20821;-66
2021/07/08 15:20:49;;;;;;;2.87;2.77;;;24.80;99.90;;;;;;4997689;28;20474;-66
2021/07/08 15:23:16;;;;;;;3.30;3.10;;;25.00;99.90;;;;;;4997646;28;20457;-66
2021/07/08 15:25:43;;;;;;;3.07;2.97;;;25.30;99.90;;;;;;4997782;28;20478;-66
2021/07/08 15:28:10;;;;;;;3.73;3.37;;;25.20;99.90;;;;;;4997630;28;20465;-66
2021/07/08 15:30:37;;;;;;;3.53;3.33;;;25.20;99.90;;;;;;4997703;28;20473;-66
2021/07/08 15:33:04;;;;;;;3.40;3.20;;;25.20;99.90;;;;;;5005696;28;20453;-66
2021/07/08 15:35:30;;;;;;;3.17;3.07;;;25.00;99.90;;;;;;5005795;28;20454;-66
2021/07/08 15:37:58;;;;;;;3.70;3.60;;;24.90;99.90;;;;;;5000322;28;20847;-66
2021/07/08 15:40:25;;;;;;;4.17;3.97;;;24.80;99.90;;;;;;4997280;28;20450;-66
2021/07/08 15:42:52;;;;;;;4.97;4.67;;;24.70;99.90;;;;;;4997575;28;20454;-66
2021/07/08 15:45:19;;;;;;;4.40;4.10;;;24.80;99.90;;;;;;4998760;28;20477;-66
2021/07/08 15:47:45;;;;;;;5.50;3.80;;;24.90;99.90;;;;;;4999600;28;20466;-66
2021/07/08 15:50:12;;;;;;;4.10;3.80;;;25.00;99.90;;;;;;5000269;28;20461;-66
2021/07/08 15:52:39;;;;;;;4.83;4.20;;;25.00;99.90;;;;;;4998607;28;20470;-66
2021/07/08 15:55:08;;;;;;;4.80;4.40;;;25.00;99.90;;;;;;4997301;28;20449;-66
2021/07/08 15:57:35;;;;;;;4.07;3.93;;;24.80;99.90;;;;;;4996636;28;21016;-66
2021/07/08 16:00:02;;;;;;;4.70;4.23;;;24.40;99.90;;;;;;4997423;28;20461;-66
2021/07/08 16:02:29;;;;;;;4.27;4.07;;;24.20;99.90;;;;;;4996860;28;20492;-67
2021/07/08 16:04:55;;;;;;;5.80;4.00;;;24.10;99.90;;;;;;4998099;28;20485;-66
2021/07/08 16:07:22;;;;;;;4.50;4.23;;;23.90;99.90;;;;;;4997275;28;20508;-66
2021/07/08 16:09:49;;;;;;;4.47;4.27;;;23.90;99.90;;;;;;4997836;28;20465;-66
2021/07/08 16:12:17;;;;;;;4.07;3.77;;;23.70;99.90;;;;;;5006658;28;20481;-66
2021/07/08 16:14:46;;;;;;;4.00;3.80;;;23.80;99.90;;;;;;5006604;28;20457;-66
2021/07/08 16:17:13;;;;;;;3.60;3.30;;;23.80;99.90;;;;;;5004163;28;20462;-66
2021/07/08 16:19:39;;;;;;;4.07;3.70;;;23.70;99.90;;;;;;4997018;28;20454;-66
2021/07/08 16:22:06;;;;;;;3.63;3.43;;;23.70;99.90;;;;;;5003341;28;20521;-66
2021/07/08 16:24:33;;;;;;;4.10;3.17;;;23.60;99.90;;;;;;4997393;28;20460;-66
2021/07/08 16:27:00;;;;;;;3.90;3.40;;;23.70;99.90;;;;;;4997453;28;20839;-66
2021/07/08 16:29:28;;;;;;;4.27;4.07;;;23.60;99.90;;;;;;4996697;28;20501;-66
2021/07/08 16:31:54;;;;;;;4.00;3.70;;;23.50;99.90;;;;;;4996294;28;20481;-66
2021/07/08 16:34:21;;;;;;;3.77;3.57;;;23.50;99.90;;;;;;4996176;28;20461;-66
2021/07/08 16:36:48;;;;;;;3.97;3.77;;;23.50;99.90;;;;;;4996164;28;20933;-66
2021/07/08 16:39:16;;;;;;;3.70;3.50;;;23.50;99.90;;;;;;4995962;28;20468;-66
2021/07/08 16:41:42;;;;;;;4.50;4.10;;;23.40;99.90;;;;;;4995751;28;20480;-66
2021/07/08 16:44:10;;;;;;;9.30;3.17;;;23.10;99.90;;;;;;4995683;28;21011;-66
2021/07/08 16:46:38;;;;;;;3.60;3.40;;;23.00;99.90;;;;;;4995796;28;20482;-66
2021/07/08 16:49:05;;;;;;;4.20;3.90;;;23.00;99.90;;;;;;4995734;28;20458;-66
2021/07/08 16:51:32;;;;;;;3.23;3.03;;;22.80;99.90;;;;;;4995839;28;20478;-65
2021/07/08 16:53:59;;;;;;;3.70;3.40;;;22.70;99.90;;;;;;4995876;28;20480;-65
2021/07/08 16:56:27;;;;;;;3.50;3.30;;;22.50;99.90;;;;;;4995753;28;20477;-66
2021/07/08 16:58:54;;;;;;;3.00;2.90;;;22.40;99.90;;;;;;4995521;28;20861;-66